sensor_id;sensor_type;location;lat;lon;timestamp;pressure;altitude;pressure_sealevel;temperature
74321;BMP280;62738;45.772;4.804;2023-05-20T00:00:36;99603.56;;;16.22
74321;BMP280;62738;45.772;4.804;2023-05-20T00:03:03;99615.22;;;15.84
74321;BMP280;62738;45.772;4.804;2023-05-20T00:05:30;99599.00;;;15.71
74321;BMP280;62738;45.772;4.804;2023-05-20T00:07:56;99605.13;;;15.79
74321;BMP280;62738;45.772;4.804;2023-05-20T00:10:23;99601.97;;;15.85
74321;BMP280;62738;45.772;4.804;2023-05-20T00:12:50;99605.00;;;16.23
74321;BMP280;62738;45.772;4.804;2023-05-20T00:15:17;99606.81;;;15.96
74321;BMP280;62738;45.772;4.804;2023-05-20T00:17:43;99612.16;;;15.92
74321;BMP280;62738;45.772;4.804;2023-05-20T00:20:10;99600.44;;;15.60
74321;BMP280;62738;45.772;4.804;2023-05-20T00:22:37;99608.38;;;15.75
74321;BMP280;62738;45.772;4.804;2023-05-20T00:25:04;99603.28;;;16.30
74321;BMP280;62738;45.772;4.804;2023-05-20T00:27:31;99613.31;;;15.65
74321;BMP280;62738;45.772;4.804;2023-05-20T00:29:57;99605.78;;;15.56
74321;BMP280;62738;45.772;4.804;2023-05-20T00:32:24;99600.13;;;15.89
74321;BMP280;62738;45.772;4.804;2023-05-20T00:34:58;99601.38;;;15.42
74321;BMP280;62738;45.772;4.804;2023-05-20T00:37:25;99599.09;;;15.50
74321;BMP280;62738;45.772;4.804;2023-05-20T00:39:52;99594.75;;;15.93
74321;BMP280;62738;45.772;4.804;2023-05-20T00:42:22;99597.09;;;15.85
74321;BMP280;62738;45.772;4.804;2023-05-20T00:44:49;99595.00;;;15.74
74321;BMP280;62738;45.772;4.804;2023-05-20T00:47:22;99592.22;;;15.74
74321;BMP280;62738;45.772;4.804;2023-05-20T00:49:51;99592.72;;;16.05
74321;BMP280;62738;45.772;4.804;2023-05-20T00:52:18;99592.78;;;15.61
74321;BMP280;62738;45.772;4.804;2023-05-20T00:54:46;99585.25;;;15.63
74321;BMP280;62738;45.772;4.804;2023-05-20T00:57:13;99582.22;;;15.71
74321;BMP280;62738;45.772;4.804;2023-05-20T00:59:40;99576.38;;;15.67
74321;BMP280;62738;45.772;4.804;2023-05-20T01:02:11;99589.38;;;15.62
74321;BMP280;62738;45.772;4.804;2023-05-20T01:04:40;99587.31;;;15.51
74321;BMP280;62738;45.772;4.804;2023-05-20T01:07:14;99579.41;;;15.71
74321;BMP280;62738;45.772;4.804;2023-05-20T01:09:41;99572.34;;;15.47
74321;BMP280;62738;45.772;4.804;2023-05-20T01:14:48;99572.13;;;15.66
74321;BMP280;62738;45.772;4.804;2023-05-20T01:17:17;99567.34;;;15.12
74321;BMP280;62738;45.772;4.804;2023-05-20T01:19:46;99557.75;;;15.48
74321;BMP280;62738;45.772;4.804;2023-05-20T01:22:14;99570.19;;;15.68
74321;BMP280;62738;45.772;4.804;2023-05-20T01:24:43;99572.44;;;15.49
74321;BMP280;62738;45.772;4.804;2023-05-20T01:27:11;99574.22;;;15.32
74321;BMP280;62738;45.772;4.804;2023-05-20T01:29:41;99566.69;;;15.23
74321;BMP280;62738;45.772;4.804;2023-05-20T01:32:11;99568.16;;;15.03
74321;BMP280;62738;45.772;4.804;2023-05-20T01:34:41;99558.09;;;15.10
74321;BMP280;62738;45.772;4.804;2023-05-20T01:37:09;99552.69;;;14.91
74321;BMP280;62738;45.772;4.804;2023-05-20T01:39:38;99561.63;;;15.43
74321;BMP280;62738;45.772;4.804;2023-05-20T01:42:09;99561.25;;;15.49
74321;BMP280;62738;45.772;4.804;2023-05-20T01:44:36;99551.66;;;15.07
74321;BMP280;62738;45.772;4.804;2023-05-20T01:47:03;99545.09;;;15.59
74321;BMP280;62738;45.772;4.804;2023-05-20T01:49:30;99553.38;;;15.12
74321;BMP280;62738;45.772;4.804;2023-05-20T01:51:56;99552.41;;;15.08
74321;BMP280;62738;45.772;4.804;2023-05-20T01:54:24;99555.34;;;15.66
74321;BMP280;62738;45.772;4.804;2023-05-20T01:56:51;99552.91;;;15.16
74321;BMP280;62738;45.772;4.804;2023-05-20T01:59:17;99555.88;;;15.29
74321;BMP280;62738;45.772;4.804;2023-05-20T02:01:44;99551.31;;;15.13
74321;BMP280;62738;45.772;4.804;2023-05-20T02:04:11;99552.19;;;15.15
74321;BMP280;62738;45.772;4.804;2023-05-20T02:06:38;99556.91;;;15.46
74321;BMP280;62738;45.772;4.804;2023-05-20T02:09:06;99549.03;;;14.88
74321;BMP280;62738;45.772;4.804;2023-05-20T02:11:32;99559.66;;;15.01
74321;BMP280;62738;45.772;4.804;2023-05-20T02:13:59;99548.19;;;14.97
74321;BMP280;62738;45.772;4.804;2023-05-20T02:16:26;99546.28;;;15.00
74321;BMP280;62738;45.772;4.804;2023-05-20T02:18:53;99539.91;;;15.88
74321;BMP280;62738;45.772;4.804;2023-05-20T02:21:20;99531.50;;;15.42
74321;BMP280;62738;45.772;4.804;2023-05-20T02:23:46;99522.06;;;15.25
74321;BMP280;62738;45.772;4.804;2023-05-20T02:26:13;99524.81;;;15.47
74321;BMP280;62738;45.772;4.804;2023-05-20T02:28:40;99529.63;;;14.90
74321;BMP280;62738;45.772;4.804;2023-05-20T02:31:12;99523.41;;;14.92
74321;BMP280;62738;45.772;4.804;2023-05-20T02:33:38;99521.09;;;15.32
74321;BMP280;62738;45.772;4.804;2023-05-20T02:36:05;99516.91;;;14.56
74321;BMP280;62738;45.772;4.804;2023-05-20T02:38:32;99519.72;;;14.77
74321;BMP280;62738;45.772;4.804;2023-05-20T02:40:59;99510.94;;;15.60
74321;BMP280;62738;45.772;4.804;2023-05-20T02:43:25;99513.41;;;14.77
74321;BMP280;62738;45.772;4.804;2023-05-20T02:45:52;99516.06;;;15.08
74321;BMP280;62738;45.772;4.804;2023-05-20T02:48:19;99514.94;;;14.89
74321;BMP280;62738;45.772;4.804;2023-05-20T02:50:46;99518.81;;;14.96
74321;BMP280;62738;45.772;4.804;2023-05-20T02:53:12;99517.03;;;15.57
74321;BMP280;62738;45.772;4.804;2023-05-20T02:55:39;99518.41;;;15.11
74321;BMP280;62738;45.772;4.804;2023-05-20T02:58:06;99520.84;;;14.63
74321;BMP280;62738;45.772;4.804;2023-05-20T03:00:33;99520.19;;;15.07
74321;BMP280;62738;45.772;4.804;2023-05-20T03:03:06;99518.50;;;15.46
74321;BMP280;62738;45.772;4.804;2023-05-20T03:05:34;99508.94;;;15.16
74321;BMP280;62738;45.772;4.804;2023-05-20T03:08:09;99509.69;;;14.84
74321;BMP280;62738;45.772;4.804;2023-05-20T03:10:37;99505.09;;;15.00
74321;BMP280;62738;45.772;4.804;2023-05-20T03:13:05;99507.88;;;14.88
74321;BMP280;62738;45.772;4.804;2023-05-20T03:15:37;99505.81;;;14.46
74321;BMP280;62738;45.772;4.804;2023-05-20T03:18:05;99506.00;;;14.18
74321;BMP280;62738;45.772;4.804;2023-05-20T03:20:34;99504.34;;;14.45
74321;BMP280;62738;45.772;4.804;2023-05-20T03:23:04;99505.75;;;14.77
74321;BMP280;62738;45.772;4.804;2023-05-20T03:25:31;99495.31;;;14.35
74321;BMP280;62738;45.772;4.804;2023-05-20T03:27:58;99505.22;;;14.48
74321;BMP280;62738;45.772;4.804;2023-05-20T03:30:26;99494.66;;;14.68
74321;BMP280;62738;45.772;4.804;2023-05-20T03:32:54;99498.66;;;14.65
74321;BMP280;62738;45.772;4.804;2023-05-20T03:35:22;99503.50;;;14.97
74321;BMP280;62738;45.772;4.804;2023-05-20T03:37:48;99506.34;;;14.76
74321;BMP280;62738;45.772;4.804;2023-05-20T03:40:17;99503.91;;;14.28
74321;BMP280;62738;45.772;4.804;2023-05-20T03:42:43;99505.56;;;14.42
74321;BMP280;62738;45.772;4.804;2023-05-20T03:45:10;99508.22;;;14.19
74321;BMP280;62738;45.772;4.804;2023-05-20T03:47:39;99518.53;;;14.59
74321;BMP280;62738;45.772;4.804;2023-05-20T03:50:06;99521.91;;;14.36
74321;BMP280;62738;45.772;4.804;2023-05-20T03:52:33;99520.31;;;14.76
74321;BMP280;62738;45.772;4.804;2023-05-20T03:55:00;99518.47;;;15.02
74321;BMP280;62738;45.772;4.804;2023-05-20T03:57:26;99518.84;;;15.41
74321;BMP280;62738;45.772;4.804;2023-05-20T03:59:54;99509.84;;;14.65
74321;BMP280;62738;45.772;4.804;2023-05-20T04:02:21;99505.41;;;14.83
74321;BMP280;62738;45.772;4.804;2023-05-20T04:04:48;99503.97;;;14.61
74321;BMP280;62738;45.772;4.804;2023-05-20T04:07:18;99506.47;;;15.11
74321;BMP280;62738;45.772;4.804;2023-05-20T04:09:45;99511.94;;;14.76
74321;BMP280;62738;45.772;4.804;2023-05-20T04:12:12;99507.38;;;15.37
74321;BMP280;62738;45.772;4.804;2023-05-20T04:14:39;99507.59;;;14.21
74321;BMP280;62738;45.772;4.804;2023-05-20T04:17:07;99505.28;;;14.81
74321;BMP280;62738;45.772;4.804;2023-05-20T04:19:35;99503.59;;;14.55
74321;BMP280;62738;45.772;4.804;2023-05-20T04:22:03;99500.50;;;14.51
74321;BMP280;62738;45.772;4.804;2023-05-20T04:24:30;99502.13;;;14.54
74321;BMP280;62738;45.772;4.804;2023-05-20T04:26:57;99492.78;;;14.82
74321;BMP280;62738;45.772;4.804;2023-05-20T04:29:24;99493.09;;;14.65
74321;BMP280;62738;45.772;4.804;2023-05-20T04:31:50;99489.53;;;15.30
74321;BMP280;62738;45.772;4.804;2023-05-20T04:34:17;99486.97;;;14.04
74321;BMP280;62738;45.772;4.804;2023-05-20T04:36:45;99495.31;;;14.57
74321;BMP280;62738;45.772;4.804;2023-05-20T04:39:12;99502.13;;;14.54
74321;BMP280;62738;45.772;4.804;2023-05-20T04:41:40;99497.44;;;14.46
74321;BMP280;62738;45.772;4.804;2023-05-20T04:44:07;99495.38;;;14.68
74321;BMP280;62738;45.772;4.804;2023-05-20T04:46:34;99490.00;;;14.39
74321;BMP280;62738;45.772;4.804;2023-05-20T04:49:00;99492.72;;;14.70
74321;BMP280;62738;45.772;4.804;2023-05-20T04:51:27;99490.41;;;15.00
74321;BMP280;62738;45.772;4.804;2023-05-20T04:53:55;99495.84;;;15.30
74321;BMP280;62738;45.772;4.804;2023-05-20T04:56:24;99489.69;;;14.99
74321;BMP280;62738;45.772;4.804;2023-05-20T04:58:51;99497.38;;;15.10
74321;BMP280;62738;45.772;4.804;2023-05-20T05:01:18;99501.53;;;15.21
74321;BMP280;62738;45.772;4.804;2023-05-20T05:03:45;99493.09;;;15.77
74321;BMP280;62738;45.772;4.804;2023-05-20T05:06:11;99494.13;;;15.25
74321;BMP280;62738;45.772;4.804;2023-05-20T05:08:38;99491.88;;;15.45
74321;BMP280;62738;45.772;4.804;2023-05-20T05:11:05;99491.44;;;15.16
74321;BMP280;62738;45.772;4.804;2023-05-20T05:13:32;99495.50;;;15.03
74321;BMP280;62738;45.772;4.804;2023-05-20T05:15:59;99507.03;;;14.98
74321;BMP280;62738;45.772;4.804;2023-05-20T05:18:26;99497.22;;;15.08
74321;BMP280;62738;45.772;4.804;2023-05-20T05:21:00;99496.44;;;14.84
74321;BMP280;62738;45.772;4.804;2023-05-20T05:23:27;99498.44;;;15.73
74321;BMP280;62738;45.772;4.804;2023-05-20T05:25:54;99495.41;;;15.81
74321;BMP280;62738;45.772;4.804;2023-05-20T05:28:21;99498.28;;;15.36
74321;BMP280;62738;45.772;4.804;2023-05-20T05:30:48;99486.09;;;15.31
74321;BMP280;62738;45.772;4.804;2023-05-20T05:33:14;99495.53;;;15.71
74321;BMP280;62738;45.772;4.804;2023-05-20T05:35:42;99496.81;;;15.23
74321;BMP280;62738;45.772;4.804;2023-05-20T05:38:08;99492.69;;;14.92
74321;BMP280;62738;45.772;4.804;2023-05-20T05:40:35;99487.72;;;15.69
74321;BMP280;62738;45.772;4.804;2023-05-20T05:43:02;99495.44;;;15.13
74321;BMP280;62738;45.772;4.804;2023-05-20T05:45:29;99487.84;;;16.06
74321;BMP280;62738;45.772;4.804;2023-05-20T05:47:56;99494.34;;;15.86
74321;BMP280;62738;45.772;4.804;2023-05-20T05:50:23;99493.78;;;15.19
74321;BMP280;62738;45.772;4.804;2023-05-20T05:52:50;99500.22;;;15.33
74321;BMP280;62738;45.772;4.804;2023-05-20T05:55:16;99501.25;;;15.96
74321;BMP280;62738;45.772;4.804;2023-05-20T05:57:44;99494.84;;;15.26
74321;BMP280;62738;45.772;4.804;2023-05-20T06:00:11;99489.97;;;14.82
74321;BMP280;62738;45.772;4.804;2023-05-20T06:02:38;99480.06;;;15.93
74321;BMP280;62738;45.772;4.804;2023-05-20T06:05:05;99473.09;;;16.17
74321;BMP280;62738;45.772;4.804;2023-05-20T06:07:32;99479.81;;;15.66
74321;BMP280;62738;45.772;4.804;2023-05-20T06:09:58;99468.63;;;15.89
74321;BMP280;62738;45.772;4.804;2023-05-20T06:12:25;99474.59;;;16.07
74321;BMP280;62738;45.772;4.804;2023-05-20T06:14:51;99473.78;;;16.30
74321;BMP280;62738;45.772;4.804;2023-05-20T06:17:18;99475.84;;;16.41
74321;BMP280;62738;45.772;4.804;2023-05-20T06:19:45;99471.50;;;16.88
74321;BMP280;62738;45.772;4.804;2023-05-20T06:22:11;99476.91;;;16.10
74321;BMP280;62738;45.772;4.804;2023-05-20T06:24:38;99461.50;;;16.35
74321;BMP280;62738;45.772;4.804;2023-05-20T06:27:05;99464.84;;;15.38
74321;BMP280;62738;45.772;4.804;2023-05-20T06:29:31;99460.25;;;15.66
74321;BMP280;62738;45.772;4.804;2023-05-20T06:31:58;99468.44;;;16.34
74321;BMP280;62738;45.772;4.804;2023-05-20T06:34:25;99464.47;;;15.32
74321;BMP280;62738;45.772;4.804;2023-05-20T06:36:52;99461.34;;;16.07
74321;BMP280;62738;45.772;4.804;2023-05-20T06:39:18;99459.16;;;15.94
74321;BMP280;62738;45.772;4.804;2023-05-20T06:41:45;99461.38;;;15.84
74321;BMP280;62738;45.772;4.804;2023-05-20T06:44:12;99469.00;;;15.72
74321;BMP280;62738;45.772;4.804;2023-05-20T06:46:38;99469.25;;;15.64
74321;BMP280;62738;45.772;4.804;2023-05-20T06:49:05;99469.50;;;15.45
74321;BMP280;62738;45.772;4.804;2023-05-20T06:51:32;99458.91;;;15.90
74321;BMP280;62738;45.772;4.804;2023-05-20T06:53:58;99473.75;;;15.58
74321;BMP280;62738;45.772;4.804;2023-05-20T06:56:25;99458.19;;;15.78
74321;BMP280;62738;45.772;4.804;2023-05-20T06:58:52;99456.50;;;15.50
74321;BMP280;62738;45.772;4.804;2023-05-20T07:01:18;99448.91;;;15.99
74321;BMP280;62738;45.772;4.804;2023-05-20T07:03:45;99448.34;;;15.77
74321;BMP280;62738;45.772;4.804;2023-05-20T07:06:12;99451.66;;;15.85
74321;BMP280;62738;45.772;4.804;2023-05-20T07:08:39;99447.47;;;15.86
74321;BMP280;62738;45.772;4.804;2023-05-20T07:11:06;99449.47;;;16.32
74321;BMP280;62738;45.772;4.804;2023-05-20T07:13:32;99436.91;;;16.70
74321;BMP280;62738;45.772;4.804;2023-05-20T07:15:59;99447.75;;;16.64
74321;BMP280;62738;45.772;4.804;2023-05-20T07:18:26;99452.25;;;16.44
74321;BMP280;62738;45.772;4.804;2023-05-20T07:20:54;99452.53;;;16.50
74321;BMP280;62738;45.772;4.804;2023-05-20T07:23:22;99448.50;;;16.28
74321;BMP280;62738;45.772;4.804;2023-05-20T07:25:49;99434.09;;;16.70
74321;BMP280;62738;45.772;4.804;2023-05-20T07:28:17;99442.53;;;16.21
74321;BMP280;62738;45.772;4.804;2023-05-20T07:30:43;99428.41;;;16.82
74321;BMP280;62738;45.772;4.804;2023-05-20T07:33:15;99440.31;;;16.32
74321;BMP280;62738;45.772;4.804;2023-05-20T07:35:43;99448.00;;;16.31
74321;BMP280;62738;45.772;4.804;2023-05-20T07:38:11;99443.25;;;16.34
74321;BMP280;62738;45.772;4.804;2023-05-20T07:40:38;99458.78;;;16.99
74321;BMP280;62738;45.772;4.804;2023-05-20T07:43:07;99453.97;;;16.88
74321;BMP280;62738;45.772;4.804;2023-05-20T07:45:34;99450.88;;;16.95
74321;BMP280;62738;45.772;4.804;2023-05-20T07:48:03;99451.63;;;17.09
74321;BMP280;62738;45.772;4.804;2023-05-20T07:50:30;99444.31;;;17.57
74321;BMP280;62738;45.772;4.804;2023-05-20T07:52:57;99446.91;;;17.39
74321;BMP280;62738;45.772;4.804;2023-05-20T07:55:24;99445.44;;;17.25
74321;BMP280;62738;45.772;4.804;2023-05-20T07:57:51;99441.69;;;16.81
74321;BMP280;62738;45.772;4.804;2023-05-20T08:00:17;99437.09;;;16.99
74321;BMP280;62738;45.772;4.804;2023-05-20T08:02:44;99437.72;;;16.98
74321;BMP280;62738;45.772;4.804;2023-05-20T08:05:12;99434.44;;;17.29
74321;BMP280;62738;45.772;4.804;2023-05-20T08:07:38;99433.72;;;17.96
74321;BMP280;62738;45.772;4.804;2023-05-20T08:10:05;99428.28;;;18.00
74321;BMP280;62738;45.772;4.804;2023-05-20T08:12:32;99430.44;;;18.16
74321;BMP280;62738;45.772;4.804;2023-05-20T08:14:59;99428.91;;;17.17
74321;BMP280;62738;45.772;4.804;2023-05-20T08:17:25;99423.34;;;17.44
74321;BMP280;62738;45.772;4.804;2023-05-20T08:19:52;99424.97;;;17.08
74321;BMP280;62738;45.772;4.804;2023-05-20T08:22:19;99421.00;;;17.00
74321;BMP280;62738;45.772;4.804;2023-05-20T08:24:46;99411.28;;;17.28
74321;BMP280;62738;45.772;4.804;2023-05-20T08:27:12;99419.50;;;17.24
74321;BMP280;62738;45.772;4.804;2023-05-20T08:29:39;99401.19;;;17.78
74321;BMP280;62738;45.772;4.804;2023-05-20T08:32:06;99404.81;;;17.80
74321;BMP280;62738;45.772;4.804;2023-05-20T08:34:33;99401.44;;;16.75
74321;BMP280;62738;45.772;4.804;2023-05-20T08:37:00;99406.75;;;16.57
74321;BMP280;62738;45.772;4.804;2023-05-20T08:39:26;99401.09;;;16.68
74321;BMP280;62738;45.772;4.804;2023-05-20T08:41:53;99393.84;;;17.30
74321;BMP280;62738;45.772;4.804;2023-05-20T08:44:20;99394.22;;;16.97
74321;BMP280;62738;45.772;4.804;2023-05-20T08:46:48;99390.59;;;17.76
74321;BMP280;62738;45.772;4.804;2023-05-20T08:49:15;99392.81;;;17.64
74321;BMP280;62738;45.772;4.804;2023-05-20T08:51:42;99390.31;;;17.56
74321;BMP280;62738;45.772;4.804;2023-05-20T08:54:09;99400.50;;;17.64
74321;BMP280;62738;45.772;4.804;2023-05-20T08:56:37;99403.50;;;16.74
74321;BMP280;62738;45.772;4.804;2023-05-20T08:59:05;99407.47;;;17.63
74321;BMP280;62738;45.772;4.804;2023-05-20T09:01:34;99398.97;;;18.33
74321;BMP280;62738;45.772;4.804;2023-05-20T09:04:02;99402.19;;;18.41
74321;BMP280;62738;45.772;4.804;2023-05-20T09:06:29;99403.06;;;17.46
74321;BMP280;62738;45.772;4.804;2023-05-20T09:08:55;99398.81;;;17.72
74321;BMP280;62738;45.772;4.804;2023-05-20T09:11:22;99392.22;;;17.95
74321;BMP280;62738;45.772;4.804;2023-05-20T09:13:49;99393.84;;;18.43
74321;BMP280;62738;45.772;4.804;2023-05-20T09:16:16;99387.72;;;18.33
74321;BMP280;62738;45.772;4.804;2023-05-20T09:18:43;99389.28;;;18.36
74321;BMP280;62738;45.772;4.804;2023-05-20T09:21:10;99379.38;;;19.11
74321;BMP280;62738;45.772;4.804;2023-05-20T09:23:37;99390.22;;;18.11
74321;BMP280;62738;45.772;4.804;2023-05-20T09:26:04;99381.84;;;18.72
74321;BMP280;62738;45.772;4.804;2023-05-20T09:28:31;99384.03;;;17.99
74321;BMP280;62738;45.772;4.804;2023-05-20T09:30:58;99387.31;;;17.39
74321;BMP280;62738;45.772;4.804;2023-05-20T09:33:31;99384.28;;;18.95
74321;BMP280;62738;45.772;4.804;2023-05-20T09:36:06;99397.47;;;18.90
74321;BMP280;62738;45.772;4.804;2023-05-20T09:38:36;99387.06;;;18.64
74321;BMP280;62738;45.772;4.804;2023-05-20T09:41:12;99389.19;;;19.10
74321;BMP280;62738;45.772;4.804;2023-05-20T09:43:39;99392.50;;;18.01
74321;BMP280;62738;45.772;4.804;2023-05-20T09:46:06;99395.91;;;17.56
74321;BMP280;62738;45.772;4.804;2023-05-20T09:48:36;99389.19;;;18.79
74321;BMP280;62738;45.772;4.804;2023-05-20T09:51:04;99387.97;;;19.31
74321;BMP280;62738;45.772;4.804;2023-05-20T09:53:32;99391.47;;;18.82
74321;BMP280;62738;45.772;4.804;2023-05-20T09:55:59;99389.38;;;18.22
74321;BMP280;62738;45.772;4.804;2023-05-20T09:58:26;99390.50;;;19.25
74321;BMP280;62738;45.772;4.804;2023-05-20T10:00:53;99377.91;;;19.59
74321;BMP280;62738;45.772;4.804;2023-05-20T10:03:21;99382.34;;;19.31
74321;BMP280;62738;45.772;4.804;2023-05-20T10:06:12;99379.00;;;19.85
74321;BMP280;62738;45.772;4.804;2023-05-20T10:14:37;99371.03;;;19.62
74321;BMP280;62738;45.772;4.804;2023-05-20T10:19:37;99357.78;;;20.35
74321;BMP280;62738;45.772;4.804;2023-05-20T10:22:06;99360.31;;;20.47
74321;BMP280;62738;45.772;4.804;2023-05-20T10:24:38;99358.75;;;20.62
74321;BMP280;62738;45.772;4.804;2023-05-20T10:27:12;99359.50;;;20.44
74321;BMP280;62738;45.772;4.804;2023-05-20T10:29:55;99358.59;;;20.58
74321;BMP280;62738;45.772;4.804;2023-05-20T10:32:27;99347.47;;;20.62
74321;BMP280;62738;45.772;4.804;2023-05-20T10:35:03;99357.09;;;20.37
74321;BMP280;62738;45.772;4.804;2023-05-20T10:37:32;99354.69;;;21.26
74321;BMP280;62738;45.772;4.804;2023-05-20T10:40:12;99358.53;;;21.34
74321;BMP280;62738;45.772;4.804;2023-05-20T10:42:40;99357.63;;;22.90
74321;BMP280;62738;45.772;4.804;2023-05-20T10:45:08;99349.09;;;22.15
74321;BMP280;62738;45.772;4.804;2023-05-20T10:47:35;99348.63;;;21.55
74321;BMP280;62738;45.772;4.804;2023-05-20T10:50:02;99345.66;;;21.73
74321;BMP280;62738;45.772;4.804;2023-05-20T10:52:37;99345.25;;;20.78
74321;BMP280;62738;45.772;4.804;2023-05-20T10:55:04;99344.25;;;20.69
74321;BMP280;62738;45.772;4.804;2023-05-20T10:57:33;99353.66;;;21.37
74321;BMP280;62738;45.772;4.804;2023-05-20T10:59:59;99343.63;;;20.53
74321;BMP280;62738;45.772;4.804;2023-05-20T11:02:26;99340.41;;;20.06
74321;BMP280;62738;45.772;4.804;2023-05-20T11:04:57;99344.84;;;20.11
74321;BMP280;62738;45.772;4.804;2023-05-20T11:07:29;99340.59;;;21.26
74321;BMP280;62738;45.772;4.804;2023-05-20T11:09:56;99339.00;;;20.62
74321;BMP280;62738;45.772;4.804;2023-05-20T11:12:24;99334.75;;;20.61
74321;BMP280;62738;45.772;4.804;2023-05-20T11:14:51;99345.97;;;22.05
74321;BMP280;62738;45.772;4.804;2023-05-20T11:17:18;99336.31;;;21.68
74321;BMP280;62738;45.772;4.804;2023-05-20T11:19:46;99347.72;;;20.68
74321;BMP280;62738;45.772;4.804;2023-05-20T11:22:13;99342.75;;;21.08
74321;BMP280;62738;45.772;4.804;2023-05-20T11:24:40;99333.78;;;21.33
74321;BMP280;62738;45.772;4.804;2023-05-20T11:27:06;99331.09;;;22.04
74321;BMP280;62738;45.772;4.804;2023-05-20T11:29:33;99336.13;;;21.40
74321;BMP280;62738;45.772;4.804;2023-05-20T11:32:00;99335.13;;;21.97
74321;BMP280;62738;45.772;4.804;2023-05-20T11:34:37;99329.38;;;22.40
74321;BMP280;62738;45.772;4.804;2023-05-20T11:37:08;99325.97;;;21.31
74321;BMP280;62738;45.772;4.804;2023-05-20T11:39:36;99322.63;;;22.28
74321;BMP280;62738;45.772;4.804;2023-05-20T11:42:03;99318.91;;;22.45
74321;BMP280;62738;45.772;4.804;2023-05-20T11:44:31;99311.13;;;21.74
74321;BMP280;62738;45.772;4.804;2023-05-20T11:46:59;99319.72;;;21.78
74321;BMP280;62738;45.772;4.804;2023-05-20T11:49:27;99315.31;;;23.51
74321;BMP280;62738;45.772;4.804;2023-05-20T11:51:55;99312.88;;;22.82
74321;BMP280;62738;45.772;4.804;2023-05-20T11:54:22;99306.75;;;23.47
74321;BMP280;62738;45.772;4.804;2023-05-20T11:56:50;99307.53;;;22.69
74321;BMP280;62738;45.772;4.804;2023-05-20T11:59:17;99315.75;;;22.84
74321;BMP280;62738;45.772;4.804;2023-05-20T12:01:43;99317.94;;;21.67
74321;BMP280;62738;45.772;4.804;2023-05-20T12:04:11;99305.41;;;21.72
74321;BMP280;62738;45.772;4.804;2023-05-20T12:06:42;99310.75;;;22.83
74321;BMP280;62738;45.772;4.804;2023-05-20T12:09:09;99308.53;;;22.79
74321;BMP280;62738;45.772;4.804;2023-05-20T12:11:37;99301.34;;;22.74
74321;BMP280;62738;45.772;4.804;2023-05-20T12:14:07;99297.03;;;23.27
74321;BMP280;62738;45.772;4.804;2023-05-20T12:16:34;99295.47;;;22.94
74321;BMP280;62738;45.772;4.804;2023-05-20T12:19:01;99293.34;;;22.67
74321;BMP280;62738;45.772;4.804;2023-05-20T12:21:28;99297.44;;;22.87
74321;BMP280;62738;45.772;4.804;2023-05-20T12:23:55;99291.84;;;23.77
74321;BMP280;62738;45.772;4.804;2023-05-20T12:26:24;99300.91;;;22.84
74321;BMP280;62738;45.772;4.804;2023-05-20T12:28:51;99300.06;;;22.30
74321;BMP280;62738;45.772;4.804;2023-05-20T12:31:18;99295.06;;;23.06
74321;BMP280;62738;45.772;4.804;2023-05-20T12:33:45;99286.97;;;22.66
74321;BMP280;62738;45.772;4.804;2023-05-20T12:36:13;99296.13;;;23.78
74321;BMP280;62738;45.772;4.804;2023-05-20T12:38:39;99287.78;;;22.96
74321;BMP280;62738;45.772;4.804;2023-05-20T12:41:06;99290.69;;;22.73
74321;BMP280;62738;45.772;4.804;2023-05-20T12:43:34;99277.75;;;22.91
74321;BMP280;62738;45.772;4.804;2023-05-20T12:46:02;99280.34;;;23.39
74321;BMP280;62738;45.772;4.804;2023-05-20T12:48:29;99282.09;;;23.86
74321;BMP280;62738;45.772;4.804;2023-05-20T12:50:56;99271.28;;;22.61
74321;BMP280;62738;45.772;4.804;2023-05-20T12:53:23;99284.56;;;22.57
74321;BMP280;62738;45.772;4.804;2023-05-20T12:55:49;99273.19;;;22.78
74321;BMP280;62738;45.772;4.804;2023-05-20T12:58:16;99275.16;;;22.74
74321;BMP280;62738;45.772;4.804;2023-05-20T13:00:43;99272.50;;;21.81
74321;BMP280;62738;45.772;4.804;2023-05-20T13:03:09;99272.00;;;22.36
74321;BMP280;62738;45.772;4.804;2023-05-20T13:05:37;99264.16;;;23.14
74321;BMP280;62738;45.772;4.804;2023-05-20T13:08:04;99266.97;;;22.09
74321;BMP280;62738;45.772;4.804;2023-05-20T13:10:31;99269.13;;;22.87
74321;BMP280;62738;45.772;4.804;2023-05-20T13:12:58;99275.50;;;22.11
74321;BMP280;62738;45.772;4.804;2023-05-20T13:15:25;99277.91;;;22.44
74321;BMP280;62738;45.772;4.804;2023-05-20T13:17:51;99270.69;;;22.92
74321;BMP280;62738;45.772;4.804;2023-05-20T13:20:20;99281.50;;;23.00
74321;BMP280;62738;45.772;4.804;2023-05-20T13:22:47;99271.34;;;23.19
74321;BMP280;62738;45.772;4.804;2023-05-20T13:25:15;99275.66;;;23.81
74321;BMP280;62738;45.772;4.804;2023-05-20T13:27:42;99274.78;;;23.75
74321;BMP280;62738;45.772;4.804;2023-05-20T13:30:09;99269.78;;;22.58
74321;BMP280;62738;45.772;4.804;2023-05-20T13:32:36;99276.78;;;23.38
74321;BMP280;62738;45.772;4.804;2023-05-20T13:35:03;99264.31;;;22.92
74321;BMP280;62738;45.772;4.804;2023-05-20T13:37:30;99264.34;;;22.94
74321;BMP280;62738;45.772;4.804;2023-05-20T13:39:56;99261.72;;;23.30
74321;BMP280;62738;45.772;4.804;2023-05-20T13:42:23;99266.28;;;23.43
74321;BMP280;62738;45.772;4.804;2023-05-20T13:44:50;99275.94;;;22.76
74321;BMP280;62738;45.772;4.804;2023-05-20T13:47:16;99262.97;;;22.67
74321;BMP280;62738;45.772;4.804;2023-05-20T13:49:43;99262.59;;;22.53
74321;BMP280;62738;45.772;4.804;2023-05-20T13:52:10;99259.97;;;21.86
74321;BMP280;62738;45.772;4.804;2023-05-20T13:54:36;99267.22;;;22.68
74321;BMP280;62738;45.772;4.804;2023-05-20T13:57:03;99255.31;;;21.96
74321;BMP280;62738;45.772;4.804;2023-05-20T13:59:33;99245.41;;;22.19
74321;BMP280;62738;45.772;4.804;2023-05-20T14:02:00;99266.13;;;22.28
74321;BMP280;62738;45.772;4.804;2023-05-20T14:04:28;99254.75;;;22.26
74321;BMP280;62738;45.772;4.804;2023-05-20T14:06:56;99249.41;;;22.89
74321;BMP280;62738;45.772;4.804;2023-05-20T14:09:24;99249.97;;;23.12
74321;BMP280;62738;45.772;4.804;2023-05-20T14:11:51;99240.84;;;22.85
74321;BMP280;62738;45.772;4.804;2023-05-20T14:14:17;99243.50;;;23.07
74321;BMP280;62738;45.772;4.804;2023-05-20T14:16:44;99239.69;;;22.96
74321;BMP280;62738;45.772;4.804;2023-05-20T14:19:11;99233.69;;;22.05
74321;BMP280;62738;45.772;4.804;2023-05-20T14:21:38;99242.56;;;22.45